sensor_id;sensor_type;location;lat;lon;timestamp;temperature;humidity
57652;DHT22;43480;53.116;6.734;2023-12-07T00:00:50;2.80;99.90
57652;DHT22;43480;53.116;6.734;2023-12-07T00:03:16;2.70;99.90
57652;DHT22;43480;53.116;6.734;2023-12-07T00:05:41;2.70;99.90
57652;DHT22;43480;53.116;6.734;2023-12-07T00:08:10;2.70;99.90
57652;DHT22;43480;53.116;6.734;2023-12-07T00:10:36;2.70;99.90
57652;DHT22;43480;53.116;6.734;2023-12-07T00:13:02;2.70;99.90
57652;DHT22;43480;53.116;6.734;2023-12-07T00:15:28;2.70;99.90
57652;DHT22;43480;53.116;6.734;2023-12-07T00:17:54;2.70;99.90
57652;DHT22;43480;53.116;6.734;2023-12-07T00:20:19;2.70;99.90
57652;DHT22;43480;53.116;6.734;2023-12-07T00:22:45;2.70;99.90
57652;DHT22;43480;53.116;6.734;2023-12-07T00:25:11;2.70;99.90
57652;DHT22;43480;53.116;6.734;2023-12-07T00:27:37;2.80;99.90
57652;DHT22;43480;53.116;6.734;2023-12-07T00:30:02;2.70;99.90
57652;DHT22;43480;53.116;6.734;2023-12-07T00:32:29;2.70;99.90
57652;DHT22;43480;53.116;6.734;2023-12-07T00:34:54;2.70;99.90
57652;DHT22;43480;53.116;6.734;2023-12-07T00:37:20;2.70;99.90
57652;DHT22;43480;53.116;6.734;2023-12-07T00:39:46;2.80;99.90
57652;DHT22;43480;53.116;6.734;2023-12-07T00:42:12;2.70;99.90
57652;DHT22;43480;53.116;6.734;2023-12-07T00:44:41;2.70;99.90
57652;DHT22;43480;53.116;6.734;2023-12-07T00:47:07;2.70;99.90
57652;DHT22;43480;53.116;6.734;2023-12-07T00:49:33;2.70;99.90
57652;DHT22;43480;53.116;6.734;2023-12-07T00:51:58;2.60;99.90
57652;DHT22;43480;53.116;6.734;2023-12-07T00:54:24;2.70;99.90
57652;DHT22;43480;53.116;6.734;2023-12-07T00:56:50;2.70;99.90
57652;DHT22;43480;53.116;6.734;2023-12-07T00:59:16;2.80;99.90
57652;DHT22;43480;53.116;6.734;2023-12-07T01:01:42;2.70;99.90
57652;DHT22;43480;53.116;6.734;2023-12-07T01:04:07;2.70;99.90
57652;DHT22;43480;53.116;6.734;2023-12-07T01:06:33;2.70;99.90
57652;DHT22;43480;53.116;6.734;2023-12-07T01:08:59;2.70;99.90
57652;DHT22;43480;53.116;6.734;2023-12-07T01:11:25;2.80;99.90
57652;DHT22;43480;53.116;6.734;2023-12-07T01:13:50;2.70;99.90
57652;DHT22;43480;53.116;6.734;2023-12-07T01:16:16;2.70;99.90
57652;DHT22;43480;53.116;6.734;2023-12-07T01:18:42;2.80;99.90
57652;DHT22;43480;53.116;6.734;2023-12-07T01:21:07;2.80;99.90
57652;DHT22;43480;53.116;6.734;2023-12-07T01:23:33;2.70;99.90
57652;DHT22;43480;53.116;6.734;2023-12-07T01:25:58;2.70;99.90
57652;DHT22;43480;53.116;6.734;2023-12-07T01:28:27;2.70;99.90
57652;DHT22;43480;53.116;6.734;2023-12-07T01:30:53;2.80;99.90
57652;DHT22;43480;53.116;6.734;2023-12-07T01:33:19;2.80;99.90
57652;DHT22;43480;53.116;6.734;2023-12-07T01:35:44;2.70;99.90
57652;DHT22;43480;53.116;6.734;2023-12-07T01:38:10;2.80;99.90
57652;DHT22;43480;53.116;6.734;2023-12-07T01:40:36;2.80;99.90
57652;DHT22;43480;53.116;6.734;2023-12-07T01:43:01;2.80;99.90
57652;DHT22;43480;53.116;6.734;2023-12-07T01:45:27;2.80;99.90
57652;DHT22;43480;53.116;6.734;2023-12-07T01:47:54;2.80;99.90
57652;DHT22;43480;53.116;6.734;2023-12-07T01:50:22;2.80;99.90
57652;DHT22;43480;53.116;6.734;2023-12-07T01:52:54;2.80;99.90
57652;DHT22;43480;53.116;6.734;2023-12-07T01:55:21;2.80;99.90
57652;DHT22;43480;53.116;6.734;2023-12-07T01:57:47;2.90;99.90
57652;DHT22;43480;53.116;6.734;2023-12-07T02:00:15;2.90;99.90
57652;DHT22;43480;53.116;6.734;2023-12-07T02:02:41;2.90;99.90
57652;DHT22;43480;53.116;6.734;2023-12-07T02:05:08;2.90;99.90
57652;DHT22;43480;53.116;6.734;2023-12-07T02:07:34;2.90;99.90
57652;DHT22;43480;53.116;6.734;2023-12-07T02:10:00;2.80;99.90
57652;DHT22;43480;53.116;6.734;2023-12-07T02:12:26;2.80;99.90
57652;DHT22;43480;53.116;6.734;2023-12-07T02:14:55;2.80;99.90
57652;DHT22;43480;53.116;6.734;2023-12-07T02:22:43;2.80;99.90
57652;DHT22;43480;53.116;6.734;2023-12-07T02:25:14;2.80;99.90
57652;DHT22;43480;53.116;6.734;2023-12-07T02:27:44;2.80;99.90
57652;DHT22;43480;53.116;6.734;2023-12-07T02:30:13;2.80;99.90
57652;DHT22;43480;53.116;6.734;2023-12-07T02:32:41;2.80;99.90
57652;DHT22;43480;53.116;6.734;2023-12-07T02:35:08;2.70;99.90
57652;DHT22;43480;53.116;6.734;2023-12-07T02:37:48;2.80;99.90
57652;DHT22;43480;53.116;6.734;2023-12-07T02:40:18;2.70;99.90
57652;DHT22;43480;53.116;6.734;2023-12-07T02:42:44;2.70;99.90
57652;DHT22;43480;53.116;6.734;2023-12-07T02:45:11;2.70;99.90
57652;DHT22;43480;53.116;6.734;2023-12-07T02:47:38;2.70;99.90
57652;DHT22;43480;53.116;6.734;2023-12-07T02:50:05;2.70;99.90
57652;DHT22;43480;53.116;6.734;2023-12-07T02:52:32;2.70;99.90
57652;DHT22;43480;53.116;6.734;2023-12-07T02:54:58;2.70;99.90
57652;DHT22;43480;53.116;6.734;2023-12-07T02:57:23;2.70;99.90
57652;DHT22;43480;53.116;6.734;2023-12-07T02:59:49;2.70;99.90
57652;DHT22;43480;53.116;6.734;2023-12-07T03:02:15;2.70;99.90
57652;DHT22;43480;53.116;6.734;2023-12-07T03:04:40;2.70;99.90
57652;DHT22;43480;53.116;6.734;2023-12-07T03:07:06;2.70;99.90
57652;DHT22;43480;53.116;6.734;2023-12-07T03:09:31;2.70;99.90
57652;DHT22;43480;53.116;6.734;2023-12-07T03:11:57;2.70;99.90
57652;DHT22;43480;53.116;6.734;2023-12-07T03:14:23;2.70;99.90
57652;DHT22;43480;53.116;6.734;2023-12-07T03:16:49;2.80;99.90
57652;DHT22;43480;53.116;6.734;2023-12-07T03:19:14;2.70;99.90
57652;DHT22;43480;53.116;6.734;2023-12-07T03:21:41;2.70;99.90
57652;DHT22;43480;53.116;6.734;2023-12-07T03:24:08;2.80;99.90
57652;DHT22;43480;53.116;6.734;2023-12-07T03:26:34;2.70;99.90
57652;DHT22;43480;53.116;6.734;2023-12-07T03:29:00;2.80;99.90
57652;DHT22;43480;53.116;6.734;2023-12-07T03:31:26;2.80;99.90
57652;DHT22;43480;53.116;6.734;2023-12-07T03:33:52;2.80;99.90
57652;DHT22;43480;53.116;6.734;2023-12-07T03:36:18;2.80;99.90
57652;DHT22;43480;53.116;6.734;2023-12-07T03:38:44;2.70;99.90
57652;DHT22;43480;53.116;6.734;2023-12-07T03:41:09;2.70;99.90
57652;DHT22;43480;53.116;6.734;2023-12-07T03:43:35;2.70;99.90
57652;DHT22;43480;53.116;6.734;2023-12-07T03:46:04;2.70;99.90
57652;DHT22;43480;53.116;6.734;2023-12-07T03:48:30;2.70;99.90
57652;DHT22;43480;53.116;6.734;2023-12-07T03:50:56;2.70;99.90
57652;DHT22;43480;53.116;6.734;2023-12-07T03:53:21;2.70;99.90
57652;DHT22;43480;53.116;6.734;2023-12-07T03:55:47;2.70;99.90
57652;DHT22;43480;53.116;6.734;2023-12-07T03:58:13;2.70;99.90
57652;DHT22;43480;53.116;6.734;2023-12-07T04:00:39;2.70;99.90
57652;DHT22;43480;53.116;6.734;2023-12-07T04:03:05;2.70;99.90
57652;DHT22;43480;53.116;6.734;2023-12-07T04:05:31;2.70;99.90
57652;DHT22;43480;53.116;6.734;2023-12-07T04:07:57;2.70;99.90
57652;DHT22;43480;53.116;6.734;2023-12-07T04:10:23;2.70;99.90
57652;DHT22;43480;53.116;6.734;2023-12-07T04:12:49;2.70;99.90
57652;DHT22;43480;53.116;6.734;2023-12-07T04:15:14;2.70;99.90
57652;DHT22;43480;53.116;6.734;2023-12-07T04:17:40;2.70;99.90
57652;DHT22;43480;53.116;6.734;2023-12-07T04:20:06;2.70;99.90
57652;DHT22;43480;53.116;6.734;2023-12-07T04:22:33;2.70;99.90
57652;DHT22;43480;53.116;6.734;2023-12-07T04:24:58;2.60;99.90
57652;DHT22;43480;53.116;6.734;2023-12-07T04:27:24;2.60;99.90
57652;DHT22;43480;53.116;6.734;2023-12-07T04:29:50;2.60;99.90
57652;DHT22;43480;53.116;6.734;2023-12-07T04:32:15;2.60;99.90
57652;DHT22;43480;53.116;6.734;2023-12-07T04:34:41;2.60;99.90
57652;DHT22;43480;53.116;6.734;2023-12-07T04:37:06;2.60;99.90
57652;DHT22;43480;53.116;6.734;2023-12-07T04:39:32;2.60;99.90
57652;DHT22;43480;53.116;6.734;2023-12-07T04:41:58;2.60;99.90
57652;DHT22;43480;53.116;6.734;2023-12-07T04:44:23;2.60;99.90
57652;DHT22;43480;53.116;6.734;2023-12-07T04:46:51;2.60;99.90
57652;DHT22;43480;53.116;6.734;2023-12-07T04:49:18;2.60;99.90
57652;DHT22;43480;53.116;6.734;2023-12-07T04:51:43;2.50;99.90
57652;DHT22;43480;53.116;6.734;2023-12-07T04:54:12;2.50;99.90
57652;DHT22;43480;53.116;6.734;2023-12-07T04:56:41;2.50;99.90
57652;DHT22;43480;53.116;6.734;2023-12-07T04:59:07;2.40;99.90
57652;DHT22;43480;53.116;6.734;2023-12-07T05:01:35;2.40;99.90
57652;DHT22;43480;53.116;6.734;2023-12-07T05:04:01;2.30;99.90
57652;DHT22;43480;53.116;6.734;2023-12-07T05:06:32;2.20;99.90
57652;DHT22;43480;53.116;6.734;2023-12-07T05:08:58;2.20;99.90
57652;DHT22;43480;53.116;6.734;2023-12-07T05:11:24;2.10;99.90
57652;DHT22;43480;53.116;6.734;2023-12-07T05:13:49;2.20;99.90
57652;DHT22;43480;53.116;6.734;2023-12-07T05:16:15;2.10;99.90
57652;DHT22;43480;53.116;6.734;2023-12-07T05:18:41;2.10;99.90
57652;DHT22;43480;53.116;6.734;2023-12-07T05:21:07;2.10;99.90
57652;DHT22;43480;53.116;6.734;2023-12-07T05:23:33;2.20;99.90
57652;DHT22;43480;53.116;6.734;2023-12-07T05:25:59;2.20;99.90
57652;DHT22;43480;53.116;6.734;2023-12-07T05:28:25;2.20;99.90
57652;DHT22;43480;53.116;6.734;2023-12-07T05:30:51;2.20;99.90
57652;DHT22;43480;53.116;6.734;2023-12-07T05:33:18;2.20;99.90
57652;DHT22;43480;53.116;6.734;2023-12-07T05:35:47;2.20;99.90
57652;DHT22;43480;53.116;6.734;2023-12-07T05:38:12;2.20;99.90
57652;DHT22;43480;53.116;6.734;2023-12-07T05:40:38;2.20;99.90
57652;DHT22;43480;53.116;6.734;2023-12-07T05:43:03;2.10;99.90
57652;DHT22;43480;53.116;6.734;2023-12-07T05:45:29;2.20;99.90
57652;DHT22;43480;53.116;6.734;2023-12-07T05:47:56;2.10;99.90
57652;DHT22;43480;53.116;6.734;2023-12-07T05:50:22;2.10;99.90
57652;DHT22;43480;53.116;6.734;2023-12-07T05:52:48;2.10;99.90
57652;DHT22;43480;53.116;6.734;2023-12-07T05:55:13;2.20;99.90
57652;DHT22;43480;53.116;6.734;2023-12-07T05:57:39;2.20;99.90
57652;DHT22;43480;53.116;6.734;2023-12-07T06:00:06;2.20;99.90
57652;DHT22;43480;53.116;6.734;2023-12-07T06:02:35;2.20;99.90
57652;DHT22;43480;53.116;6.734;2023-12-07T06:05:02;2.20;99.90
57652;DHT22;43480;53.116;6.734;2023-12-07T06:07:29;2.20;99.90
57652;DHT22;43480;53.116;6.734;2023-12-07T06:09:55;2.20;99.90
57652;DHT22;43480;53.116;6.734;2023-12-07T06:12:21;2.30;99.90
57652;DHT22;43480;53.116;6.734;2023-12-07T06:14:48;2.20;99.90
57652;DHT22;43480;53.116;6.734;2023-12-07T06:17:13;2.20;99.90
57652;DHT22;43480;53.116;6.734;2023-12-07T06:19:39;2.20;99.90
57652;DHT22;43480;53.116;6.734;2023-12-07T06:22:05;2.30;99.90
57652;DHT22;43480;53.116;6.734;2023-12-07T06:24:31;2.30;99.90
57652;DHT22;43480;53.116;6.734;2023-12-07T06:26:59;2.30;99.90
57652;DHT22;43480;53.116;6.734;2023-12-07T06:29:27;2.20;99.90
57652;DHT22;43480;53.116;6.734;2023-12-07T06:31:52;2.20;99.90
57652;DHT22;43480;53.116;6.734;2023-12-07T06:34:18;2.20;99.90
57652;DHT22;43480;53.116;6.734;2023-12-07T06:36:45;2.20;99.90
57652;DHT22;43480;53.116;6.734;2023-12-07T06:39:10;2.10;99.90
57652;DHT22;43480;53.116;6.734;2023-12-07T06:41:36;2.20;99.90
57652;DHT22;43480;53.116;6.734;2023-12-07T06:44:02;2.10;99.90
57652;DHT22;43480;53.116;6.734;2023-12-07T06:46:27;2.10;99.90
57652;DHT22;43480;53.116;6.734;2023-12-07T06:48:54;2.10;99.90
57652;DHT22;43480;53.116;6.734;2023-12-07T06:51:19;2.10;99.90
57652;DHT22;43480;53.116;6.734;2023-12-07T06:53:45;2.10;99.90
57652;DHT22;43480;53.116;6.734;2023-12-07T06:56:10;2.10;99.90
57652;DHT22;43480;53.116;6.734;2023-12-07T06:58:36;2.10;99.90
57652;DHT22;43480;53.116;6.734;2023-12-07T07:01:02;2.10;99.90
57652;DHT22;43480;53.116;6.734;2023-12-07T07:03:29;2.10;99.90
57652;DHT22;43480;53.116;6.734;2023-12-07T07:05:55;2.10;99.90
57652;DHT22;43480;53.116;6.734;2023-12-07T07:08:20;2.00;99.90
57652;DHT22;43480;53.116;6.734;2023-12-07T07:10:46;2.00;99.90
57652;DHT22;43480;53.116;6.734;2023-12-07T07:13:12;2.00;99.90
57652;DHT22;43480;53.116;6.734;2023-12-07T07:15:41;2.00;99.90
57652;DHT22;43480;53.116;6.734;2023-12-07T07:18:08;2.00;99.90
57652;DHT22;43480;53.116;6.734;2023-12-07T07:20:33;2.00;99.90
57652;DHT22;43480;53.116;6.734;2023-12-07T07:22:59;2.00;99.90
57652;DHT22;43480;53.116;6.734;2023-12-07T07:25:25;2.00;99.90
57652;DHT22;43480;53.116;6.734;2023-12-07T07:27:51;2.00;99.90
57652;DHT22;43480;53.116;6.734;2023-12-07T07:30:18;2.00;99.90
57652;DHT22;43480;53.116;6.734;2023-12-07T07:32:43;2.00;99.90
57652;DHT22;43480;53.116;6.734;2023-12-07T07:35:09;2.00;99.90
57652;DHT22;43480;53.116;6.734;2023-12-07T07:37:39;2.00;99.90
57652;DHT22;43480;53.116;6.734;2023-12-07T07:40:07;2.00;99.90
57652;DHT22;43480;53.116;6.734;2023-12-07T07:42:33;2.00;99.90
57652;DHT22;43480;53.116;6.734;2023-12-07T07:44:59;2.00;99.90
57652;DHT22;43480;53.116;6.734;2023-12-07T07:47:25;2.00;99.90
57652;DHT22;43480;53.116;6.734;2023-12-07T07:49:50;2.00;99.90
57652;DHT22;43480;53.116;6.734;2023-12-07T07:52:16;2.10;99.90
57652;DHT22;43480;53.116;6.734;2023-12-07T07:54:42;2.10;99.90
57652;DHT22;43480;53.116;6.734;2023-12-07T07:57:08;2.10;99.90
57652;DHT22;43480;53.116;6.734;2023-12-07T07:59:34;2.10;99.90
57652;DHT22;43480;53.116;6.734;2023-12-07T08:01:59;2.10;99.90
57652;DHT22;43480;53.116;6.734;2023-12-07T08:04:25;2.10;99.90
57652;DHT22;43480;53.116;6.734;2023-12-07T08:06:51;2.20;99.90
57652;DHT22;43480;53.116;6.734;2023-12-07T08:09:16;2.20;99.90
57652;DHT22;43480;53.116;6.734;2023-12-07T08:11:42;2.10;99.90
57652;DHT22;43480;53.116;6.734;2023-12-07T08:14:08;2.10;99.90
57652;DHT22;43480;53.116;6.734;2023-12-07T08:16:34;2.20;99.90
57652;DHT22;43480;53.116;6.734;2023-12-07T08:18:59;2.10;99.90
57652;DHT22;43480;53.116;6.734;2023-12-07T08:21:25;2.20;99.90
57652;DHT22;43480;53.116;6.734;2023-12-07T08:23:51;2.20;99.90
57652;DHT22;43480;53.116;6.734;2023-12-07T08:26:17;2.20;99.90
57652;DHT22;43480;53.116;6.734;2023-12-07T08:28:43;2.20;99.90
57652;DHT22;43480;53.116;6.734;2023-12-07T08:31:12;2.10;99.90
57652;DHT22;43480;53.116;6.734;2023-12-07T08:33:38;2.10;99.90
57652;DHT22;43480;53.116;6.734;2023-12-07T08:36:05;2.10;99.90
57652;DHT22;43480;53.116;6.734;2023-12-07T08:38:31;2.10;99.90
57652;DHT22;43480;53.116;6.734;2023-12-07T08:40:57;2.10;99.90
57652;DHT22;43480;53.116;6.734;2023-12-07T08:43:24;2.10;99.90
57652;DHT22;43480;53.116;6.734;2023-12-07T08:45:52;2.10;99.90
57652;DHT22;43480;53.116;6.734;2023-12-07T08:48:19;2.10;99.90
57652;DHT22;43480;53.116;6.734;2023-12-07T08:50:46;2.10;99.90
57652;DHT22;43480;53.116;6.734;2023-12-07T08:53:11;2.10;99.90
57652;DHT22;43480;53.116;6.734;2023-12-07T08:55:37;2.00;99.90
57652;DHT22;43480;53.116;6.734;2023-12-07T08:58:03;2.00;99.90
57652;DHT22;43480;53.116;6.734;2023-12-07T09:00:32;2.00;99.90
57652;DHT22;43480;53.116;6.734;2023-12-07T09:02:58;2.00;99.90
57652;DHT22;43480;53.116;6.734;2023-12-07T09:05:26;2.00;99.90
57652;DHT22;43480;53.116;6.734;2023-12-07T09:07:51;1.90;99.90
57652;DHT22;43480;53.116;6.734;2023-12-07T09:10:18;1.90;99.90
57652;DHT22;43480;53.116;6.734;2023-12-07T09:12:44;1.80;99.90
57652;DHT22;43480;53.116;6.734;2023-12-07T09:15:10;1.80;99.90
57652;DHT22;43480;53.116;6.734;2023-12-07T09:17:39;1.80;99.90
57652;DHT22;43480;53.116;6.734;2023-12-07T09:20:08;1.90;99.90
57652;DHT22;43480;53.116;6.734;2023-12-07T09:22:39;1.80;99.90
57652;DHT22;43480;53.116;6.734;2023-12-07T09:25:06;1.80;99.90
57652;DHT22;43480;53.116;6.734;2023-12-07T09:27:33;1.80;99.90
57652;DHT22;43480;53.116;6.734;2023-12-07T09:30:04;1.80;99.90
57652;DHT22;43480;53.116;6.734;2023-12-07T09:32:30;1.70;99.90
57652;DHT22;43480;53.116;6.734;2023-12-07T09:34:55;1.80;99.90
57652;DHT22;43480;53.116;6.734;2023-12-07T09:37:21;1.80;99.90
57652;DHT22;43480;53.116;6.734;2023-12-07T09:39:47;1.80;99.90
57652;DHT22;43480;53.116;6.734;2023-12-07T09:42:13;1.80;99.90
57652;DHT22;43480;53.116;6.734;2023-12-07T09:44:38;1.90;99.90
57652;DHT22;43480;53.116;6.734;2023-12-07T09:47:05;1.90;99.90
57652;DHT22;43480;53.116;6.734;2023-12-07T09:49:31;2.00;99.90
57652;DHT22;43480;53.116;6.734;2023-12-07T09:51:58;2.00;99.90
57652;DHT22;43480;53.116;6.734;2023-12-07T09:54:26;2.00;99.90
57652;DHT22;43480;53.116;6.734;2023-12-07T09:56:53;2.00;99.90
57652;DHT22;43480;53.116;6.734;2023-12-07T09:59:20;2.00;99.90
57652;DHT22;43480;53.116;6.734;2023-12-07T10:01:45;2.00;99.90
57652;DHT22;43480;53.116;6.734;2023-12-07T10:04:15;2.10;99.90
57652;DHT22;43480;53.116;6.734;2023-12-07T10:06:45;2.10;99.90
57652;DHT22;43480;53.116;6.734;2023-12-07T10:09:11;2.20;99.90
57652;DHT22;43480;53.116;6.734;2023-12-07T10:11:37;2.20;99.90
57652;DHT22;43480;53.116;6.734;2023-12-07T10:14:05;2.20;99.90
57652;DHT22;43480;53.116;6.734;2023-12-07T10:16:31;2.30;99.90
57652;DHT22;43480;53.116;6.734;2023-12-07T10:21:38;2.30;99.90
57652;DHT22;43480;53.116;6.734;2023-12-07T10:24:05;2.40;99.90
57652;DHT22;43480;53.116;6.734;2023-12-07T10:26:31;2.40;99.90
57652;DHT22;43480;53.116;6.734;2023-12-07T10:28:57;2.40;99.90
57652;DHT22;43480;53.116;6.734;2023-12-07T10:31:26;2.50;99.90
57652;DHT22;43480;53.116;6.734;2023-12-07T10:33:52;2.60;99.90
57652;DHT22;43480;53.116;6.734;2023-12-07T10:36:19;2.60;99.90
57652;DHT22;43480;53.116;6.734;2023-12-07T10:38:45;2.70;99.90
57652;DHT22;43480;53.116;6.734;2023-12-07T10:41:12;2.70;99.90
57652;DHT22;43480;53.116;6.734;2023-12-07T10:43:43;2.80;99.90
57652;DHT22;43480;53.116;6.734;2023-12-07T10:46:14;2.80;99.90
57652;DHT22;43480;53.116;6.734;2023-12-07T10:48:44;2.90;99.90
57652;DHT22;43480;53.116;6.734;2023-12-07T10:51:12;3.00;99.90
57652;DHT22;43480;53.116;6.734;2023-12-07T10:53:41;3.10;99.90
57652;DHT22;43480;53.116;6.734;2023-12-07T10:56:16;3.10;99.90
57652;DHT22;43480;53.116;6.734;2023-12-07T10:58:45;3.10;99.90
57652;DHT22;43480;53.116;6.734;2023-12-07T11:01:11;3.20;99.90
57652;DHT22;43480;53.116;6.734;2023-12-07T11:03:39;3.20;99.90
57652;DHT22;43480;53.116;6.734;2023-12-07T11:06:07;3.30;99.90
57652;DHT22;43480;53.116;6.734;2023-12-07T11:08:55;3.30;99.90
57652;DHT22;43480;53.116;6.734;2023-12-07T11:11:39;3.40;99.90
57652;DHT22;43480;53.116;6.734;2023-12-07T11:14:09;3.40;99.90
57652;DHT22;43480;53.116;6.734;2023-12-07T11:16:44;3.40;99.90
57652;DHT22;43480;53.116;6.734;2023-12-07T11:22:01;3.50;99.90
57652;DHT22;43480;53.116;6.734;2023-12-07T11:24:27;3.60;99.90
57652;DHT22;43480;53.116;6.734;2023-12-07T11:26:56;3.60;99.90
57652;DHT22;43480;53.116;6.734;2023-12-07T11:29:24;3.60;99.90
57652;DHT22;43480;53.116;6.734;2023-12-07T11:31:51;3.60;99.90
57652;DHT22;43480;53.116;6.734;2023-12-07T11:34:40;3.60;99.90
57652;DHT22;43480;53.116;6.734;2023-12-07T11:37:16;3.60;99.90
57652;DHT22;43480;53.116;6.734;2023-12-07T11:39:42;3.50;99.90
57652;DHT22;43480;53.116;6.734;2023-12-07T11:42:12;3.50;99.90
57652;DHT22;43480;53.116;6.734;2023-12-07T11:44:39;3.50;99.90
57652;DHT22;43480;53.116;6.734;2023-12-07T11:47:06;3.40;99.90
57652;DHT22;43480;53.116;6.734;2023-12-07T11:49:32;3.30;99.90
57652;DHT22;43480;53.116;6.734;2023-12-07T11:52:15;3.20;99.90
57652;DHT22;43480;53.116;6.734;2023-12-07T11:54:43;3.20;99.90
57652;DHT22;43480;53.116;6.734;2023-12-07T11:57:09;3.10;99.90
57652;DHT22;43480;53.116;6.734;2023-12-07T11:59:35;3.00;99.90
57652;DHT22;43480;53.116;6.734;2023-12-07T12:02:01;2.90;99.90
57652;DHT22;43480;53.116;6.734;2023-12-07T12:04:29;2.80;99.90
57652;DHT22;43480;53.116;6.734;2023-12-07T12:06:55;2.80;99.90
57652;DHT22;43480;53.116;6.734;2023-12-07T12:09:23;2.80;99.90
57652;DHT22;43480;53.116;6.734;2023-12-07T12:11:49;2.70;99.90
57652;DHT22;43480;53.116;6.734;2023-12-07T12:14:18;2.70;99.90
57652;DHT22;43480;53.116;6.734;2023-12-07T12:16:46;2.70;99.90
57652;DHT22;43480;53.116;6.734;2023-12-07T12:19:12;2.70;99.90
57652;DHT22;43480;53.116;6.734;2023-12-07T12:21:40;2.80;99.90
57652;DHT22;43480;53.116;6.734;2023-12-07T12:24:10;2.70;99.90
57652;DHT22;43480;53.116;6.734;2023-12-07T12:26:39;2.70;99.90
57652;DHT22;43480;53.116;6.734;2023-12-07T12:29:08;2.70;99.90
57652;DHT22;43480;53.116;6.734;2023-12-07T12:31:35;2.70;99.90
57652;DHT22;43480;53.116;6.734;2023-12-07T12:34:01;2.60;99.90
57652;DHT22;43480;53.116;6.734;2023-12-07T12:36:27;2.60;99.90
57652;DHT22;43480;53.116;6.734;2023-12-07T12:38:53;2.60;99.90
57652;DHT22;43480;53.116;6.734;2023-12-07T12:41:20;2.60;99.90
57652;DHT22;43480;53.116;6.734;2023-12-07T12:43:46;2.60;99.90
57652;DHT22;43480;53.116;6.734;2023-12-07T12:46:16;2.60;99.90
57652;DHT22;43480;53.116;6.734;2023-12-07T12:51:25;2.50;99.90
57652;DHT22;43480;53.116;6.734;2023-12-07T12:53:51;2.40;99.90
57652;DHT22;43480;53.116;6.734;2023-12-07T12:56:19;2.50;99.90
57652;DHT22;43480;53.116;6.734;2023-12-07T12:58:47;2.40;99.90
57652;DHT22;43480;53.116;6.734;2023-12-07T13:01:13;2.40;99.90
57652;DHT22;43480;53.116;6.734;2023-12-07T13:03:41;2.40;99.90
57652;DHT22;43480;53.116;6.734;2023-12-07T13:06:07;2.40;99.90
57652;DHT22;43480;53.116;6.734;2023-12-07T13:08:32;2.40;99.90
57652;DHT22;43480;53.116;6.734;2023-12-07T13:10:58;2.30;99.90
57652;DHT22;43480;53.116;6.734;2023-12-07T13:13:24;2.30;99.90
57652;DHT22;43480;53.116;6.734;2023-12-07T13:15:50;2.30;99.90
57652;DHT22;43480;53.116;6.734;2023-12-07T13:18:16;2.30;99.90
57652;DHT22;43480;53.116;6.734;2023-12-07T13:20:41;2.40;99.90
57652;DHT22;43480;53.116;6.734;2023-12-07T13:23:07;2.40;99.90
57652;DHT22;43480;53.116;6.734;2023-12-07T13:25:33;2.40;99.90
57652;DHT22;43480;53.116;6.734;2023-12-07T13:27:58;2.40;99.90
57652;DHT22;43480;53.116;6.734;2023-12-07T13:30:24;2.30;99.90
57652;DHT22;43480;53.116;6.734;2023-12-07T13:32:52;2.30;99.90
57652;DHT22;43480;53.116;6.734;2023-12-07T13:35:18;2.30;99.90
57652;DHT22;43480;53.116;6.734;2023-12-07T13:37:44;2.30;99.90
57652;DHT22;43480;53.116;6.734;2023-12-07T13:40:10;2.20;99.90
57652;DHT22;43480;53.116;6.734;2023-12-07T13:42:37;2.20;99.90
57652;DHT22;43480;53.116;6.734;2023-12-07T13:45:03;2.20;99.90
57652;DHT22;43480;53.116;6.734;2023-12-07T13:47:29;2.10;99.90
57652;DHT22;43480;53.116;6.734;2023-12-07T13:49:58;2.10;99.90
57652;DHT22;43480;53.116;6.734;2023-12-07T13:52:24;2.10;99.90
57652;DHT22;43480;53.116;6.734;2023-12-07T13:54:50;2.10;99.90
57652;DHT22;43480;53.116;6.734;2023-12-07T13:57:16;2.10;99.90
57652;DHT22;43480;53.116;6.734;2023-12-07T13:59:42;2.00;99.90
57652;DHT22;43480;53.116;6.734;2023-12-07T14:02:08;2.10;99.90
57652;DHT22;43480;53.116;6.734;2023-12-07T14:04:34;2.10;99.90
57652;DHT22;43480;53.116;6.734;2023-12-07T14:07:12;2.10;99.90
57652;DHT22;43480;53.116;6.734;2023-12-07T14:09:40;2.00;99.90
57652;DHT22;43480;53.116;6.734;2023-12-07T14:12:06;2.00;99.90
57652;DHT22;43480;53.116;6.734;2023-12-07T14:14:34;2.00;99.90
57652;DHT22;43480;53.116;6.734;2023-12-07T14:16:59;2.10;99.90
57652;DHT22;43480;53.116;6.734;2023-12-07T14:19:26;2.10;99.90
57652;DHT22;43480;53.116;6.734;2023-12-07T14:21:53;2.10;99.90
57652;DHT22;43480;53.116;6.734;2023-12-07T14:24:19;2.00;99.90
57652;DHT22;43480;53.116;6.734;2023-12-07T14:26:44;2.00;99.90
57652;DHT22;43480;53.116;6.734;2023-12-07T14:29:10;2.10;99.90
57652;DHT22;43480;53.116;6.734;2023-12-07T14:31:41;2.10;99.90
57652;DHT22;43480;53.116;6.734;2023-12-07T14:34:06;2.00;99.90
57652;DHT22;43480;53.116;6.734;2023-12-07T14:36:32;2.00;99.90
57652;DHT22;43480;53.116;6.734;2023-12-07T14:38:58;2.00;99.90
57652;DHT22;43480;53.116;6.734;2023-12-07T14:41:23;2.10;99.90
57652;DHT22;43480;53.116;6.734;2023-12-07T14:43:49;2.00;99.90
57652;DHT22;43480;53.116;6.734;2023-12-07T14:46:15;2.10;99.90
57652;DHT22;43480;53.116;6.734;2023-12-07T14:48:40;2.10;99.90
57652;DHT22;43480;53.116;6.734;2023-12-07T14:51:06;2.10;99.90
57652;DHT22;43480;53.116;6.734;2023-12-07T14:53:33;2.10;99.90
57652;DHT22;43480;53.116;6.734;2023-12-07T14:55:59;2.10;99.90
57652;DHT22;43480;53.116;6.734;2023-12-07T14:58:25;2.20;99.90
57652;DHT22;43480;53.116;6.734;2023-12-07T15:00:52;2.20;99.90
57652;DHT22;43480;53.116;6.734;2023-12-07T15:03:17;2.20;99.90
57652;DHT22;43480;53.116;6.734;2023-12-07T15:05:44;2.20;99.90
57652;DHT22;43480;53.116;6.734;2023-12-07T15:08:10;2.20;99.90
57652;DHT22;43480;53.116;6.734;2023-12-07T15:10:37;2.30;99.90
57652;DHT22;43480;53.116;6.734;2023-12-07T15:13:03;2.30;99.90
57652;DHT22;43480;53.116;6.734;2023-12-07T15:15:30;2.30;99.90
57652;DHT22;43480;53.116;6.734;2023-12-07T15:17:55;2.30;99.90
57652;DHT22;43480;53.116;6.734;2023-12-07T15:20:21;2.30;99.90
57652;DHT22;43480;53.116;6.734;2023-12-07T15:22:47;2.40;99.90
57652;DHT22;43480;53.116;6.734;2023-12-07T15:25:13;2.40;99.90
57652;DHT22;43480;53.116;6.734;2023-12-07T15:27:38;2.40;99.90
57652;DHT22;43480;53.116;6.734;2023-12-07T15:30:05;2.50;99.90
57652;DHT22;43480;53.116;6.734;2023-12-07T15:32:33;2.40;99.90
57652;DHT22;43480;53.116;6.734;2023-12-07T15:34:58;2.50;99.90
57652;DHT22;43480;53.116;6.734;2023-12-07T15:37:24;2.50;99.90
57652;DHT22;43480;53.116;6.734;2023-12-07T15:39:50;2.50;99.90
57652;DHT22;43480;53.116;6.734;2023-12-07T15:42:16;2.50;99.90
57652;DHT22;43480;53.116;6.734;2023-12-07T15:44:42;2.40;99.90
57652;DHT22;43480;53.116;6.734;2023-12-07T15:47:08;2.50;99.90
57652;DHT22;43480;53.116;6.734;2023-12-07T15:49:34;2.40;99.90
57652;DHT22;43480;53.116;6.734;2023-12-07T15:52:00;2.40;99.90
57652;DHT22;43480;53.116;6.734;2023-12-07T15:54:26;2.40;99.90